ウラジオストク の空港の天気 - METARとTAF

ウラジオストク空港 ( UHWW / VVO ) - ロシア ウラジオストク
飛行場実況気象(Metar)
観測時間11/22 22:30 VLAT (11/22 12:30 UTC)
風向・風速北北西 4m/s
視程10km以上
天気現象
なし
気温-1℃
湿度47%
気圧1012hPa
METARUHWW 221230Z 33004MPS 9999 NSC M01/M11 Q1012 R25L/0///70 NOSIG RMK QFE758
過去の天気等 Google飛行場航空写真 Wunderground天気予報

過去48時間のMETAR

飛行場予報(TAF)
発表時間: 11/22 21:00 VLAT (11/22 11:00 UTC)
予報対象時間: 22日22時 VLAT ~ 23日22時 VLAT
風向・風速北西 3m/s
視程4,000m
天気現象煙霧
全天の4割程度の積乱雲 雲底高度 910m
22日23時 VLAT ~ 23日8時 VLAT に一時的に
風向・風速北北西 9m/s
23日8時 VLAT ~ 23日22時 VLAT に一時的に
風向・風速北北西 7m/s 瞬間風速 12m/s
TAF UHWW 221100Z 2212/2312 32003MPS 4000 HZ SCT030CB
TEMPO 2213/2222 33009MPS
TEMPO 2222/2312 34007G12MPS